Time;durP1;ratioP1;P1;durP2;ratioP2;P2;SDS_P1;SDS_P2;PMS_P1;PMS_P2;Temp;Humidity;BMP_temperature;BMP_pressure;BME280_temperature;BME280_humidity;BME280_pressure;Samples;Min_cycle;Max_cycle;Signal;HPM_P1;HPM_P2
2023/04/17 00:00:30;;;;;;;32.17;14.60;;;10.70;99.90;;;;;;5076183;28;20031;-73
2023/04/17 00:02:55;;;;;;;30.77;14.40;;;10.70;99.90;;;;;;5076304;28;20029;-73
2023/04/17 00:05:21;;;;;;;33.65;15.65;;;10.70;99.90;;;;;;5076997;28;20035;-73
2023/04/17 00:07:48;;;;;;;36.65;15.27;;;10.70;99.90;;;;;;5075989;28;20027;-73
2023/04/17 00:10:14;;;;;;;28.33;15.00;;;10.80;99.90;;;;;;5075920;28;20024;-73
2023/04/17 00:12:40;;;;;;;29.42;14.07;;;10.80;99.90;;;;;;5076090;28;20020;-73
2023/04/17 00:15:06;;;;;;;30.23;14.50;;;10.80;99.90;;;;;;5076878;28;20035;-73
2023/04/17 00:17:32;;;;;;;32.28;14.98;;;10.70;99.90;;;;;;5076685;28;20024;-73
2023/04/17 00:19:57;;;;;;;32.17;16.20;;;10.70;99.90;;;;;;5076198;28;20028;-73
2023/04/17 00:22:23;;;;;;;29.75;15.57;;;10.70;99.90;;;;;;5075851;28;20039;-73
2023/04/17 00:24:49;;;;;;;28.60;15.00;;;10.70;99.90;;;;;;5076245;28;20020;-73
2023/04/17 00:27:14;;;;;;;39.13;15.90;;;10.60;99.90;;;;;;5075695;28;20028;-73
2023/04/17 00:29:39;;;;;;;29.75;14.93;;;10.60;99.90;;;;;;5076075;28;20025;-73
2023/04/17 00:32:05;;;;;;;30.65;14.60;;;10.60;99.90;;;;;;5075845;28;20017;-73
2023/04/17 00:34:31;;;;;;;30.95;16.10;;;10.60;99.90;;;;;;5076106;28;20028;-73
2023/04/17 00:36:58;;;;;;;35.90;15.05;;;10.60;99.90;;;;;;5075759;28;20119;-73
2023/04/17 00:39:23;;;;;;;29.33;14.90;;;10.60;99.90;;;;;;5075704;28;20029;-73
2023/04/17 00:41:49;;;;;;;36.05;16.08;;;10.60;99.90;;;;;;5075568;28;20061;-73
2023/04/17 00:44:14;;;;;;;31.70;16.77;;;10.60;99.90;;;;;;5076671;28;20020;-73
2023/04/17 00:46:40;;;;;;;32.45;15.73;;;10.60;99.90;;;;;;5076112;28;20035;-73
2023/04/17 00:49:06;;;;;;;29.52;16.10;;;10.50;99.90;;;;;;5075676;28;20043;-73
2023/04/17 00:51:32;;;;;;;33.88;16.10;;;10.50;99.90;;;;;;5076100;28;20127;-73
2023/04/17 00:53:59;;;;;;;33.83;16.90;;;10.50;99.90;;;;;;5077996;28;20084;-73
2023/04/17 00:56:25;;;;;;;34.10;15.73;;;10.40;99.90;;;;;;5080285;28;20048;-73
2023/04/17 00:58:50;;;;;;;33.15;16.55;;;10.40;99.90;;;;;;5079396;28;20055;-73
2023/04/17 01:01:16;;;;;;;34.90;17.33;;;10.40;99.90;;;;;;5080220;28;20024;-73
2023/04/17 01:03:42;;;;;;;33.20;17.15;;;10.30;99.90;;;;;;5079052;28;20070;-73
2023/04/17 01:06:09;;;;;;;32.15;15.88;;;10.20;99.90;;;;;;5078818;28;20025;-73
2023/04/17 01:08:43;;;;;;;29.80;15.60;;;10.20;99.90;;;;;;5079161;28;20032;-73
2023/04/17 01:11:09;;;;;;;34.30;15.90;;;10.20;99.90;;;;;;5078974;28;20082;-73
2023/04/17 01:13:45;;;;;;;36.63;16.58;;;10.20;99.90;;;;;;5078884;28;20031;-73
2023/04/17 01:16:10;;;;;;;39.78;16.10;;;10.20;99.90;;;;;;5079681;28;20043;-73
2023/04/17 01:18:36;;;;;;;33.40;16.85;;;10.20;99.90;;;;;;5078693;28;20025;-73
2023/04/17 01:21:02;;;;;;;32.13;16.63;;;10.20;99.90;;;;;;5079697;28;20040;-73
2023/04/17 01:23:28;;;;;;;28.27;15.38;;;10.20;99.90;;;;;;5078570;28;20185;-73
2023/04/17 01:25:54;;;;;;;34.05;15.70;;;10.20;99.90;;;;;;5078881;28;20129;-73
2023/04/17 01:28:19;;;;;;;32.47;15.82;;;10.20;99.90;;;;;;5078473;28;20044;-73
2023/04/17 01:30:45;;;;;;;32.42;16.08;;;10.20;99.90;;;;;;5078524;28;20016;-73
2023/04/17 01:33:11;;;;;;;39.03;16.40;;;10.20;99.90;;;;;;5078861;28;20021;-73
2023/04/17 01:35:36;;;;;;;31.27;16.77;;;10.30;99.90;;;;;;5078395;28;20024;-73
2023/04/17 01:38:02;;;;;;;32.70;15.90;;;10.20;99.90;;;;;;5078714;28;20125;-73
2023/04/17 01:40:27;;;;;;;34.30;16.88;;;10.30;99.90;;;;;;5081781;28;20028;-73
2023/04/17 01:42:53;;;;;;;38.55;17.33;;;10.30;99.90;;;;;;5083076;28;20092;-73
2023/04/17 01:45:20;;;;;;;32.80;17.30;;;10.30;99.90;;;;;;5078275;28;20024;-73
2023/04/17 01:47:46;;;;;;;33.35;17.27;;;10.40;99.90;;;;;;5078058;28;20078;-73
2023/04/17 01:50:12;;;;;;;33.83;17.35;;;10.40;99.90;;;;;;5078436;28;20025;-73
2023/04/17 01:52:38;;;;;;;31.35;15.05;;;10.50;99.90;;;;;;5078596;28;20025;-73
2023/04/17 01:55:04;;;;;;;32.13;16.40;;;10.50;99.90;;;;;;5078036;28;20025;-73
2023/04/17 01:57:31;;;;;;;31.02;16.98;;;10.60;99.90;;;;;;5078258;28;20082;-73
2023/04/17 01:59:57;;;;;;;37.35;16.85;;;10.60;99.90;;;;;;5079179;28;20036;-73
2023/04/17 02:02:23;;;;;;;34.08;16.75;;;10.50;99.90;;;;;;5078133;28;20024;-73
2023/04/17 02:04:48;;;;;;;33.25;17.33;;;10.30;99.90;;;;;;5078591;28;20025;-73
2023/04/17 02:07:14;;;;;;;37.55;17.33;;;10.30;99.90;;;;;;5077724;28;20116;-73
2023/04/17 02:09:39;;;;;;;34.63;15.95;;;10.20;99.90;;;;;;5078618;28;20020;-73
2023/04/17 02:12:05;;;;;;;39.28;16.52;;;10.30;99.90;;;;;;5077685;28;20112;-73
2023/04/17 02:14:31;;;;;;;39.85;18.23;;;10.30;99.90;;;;;;5077558;28;20016;-73
2023/04/17 02:16:57;;;;;;;32.25;16.65;;;10.30;99.90;;;;;;5078396;28;20035;-73
2023/04/17 02:19:22;;;;;;;33.88;16.85;;;10.30;99.90;;;;;;5077526;28;20020;-73
2023/04/17 02:21:48;;;;;;;40.15;18.00;;;10.20;99.90;;;;;;5077629;28;20028;-73
2023/04/17 02:24:13;;;;;;;38.83;19.15;;;10.20;99.90;;;;;;5077971;28;20020;-73
2023/04/17 02:26:39;;;;;;;29.92;16.05;;;10.20;99.90;;;;;;5078144;28;20029;-73
2023/04/17 02:29:05;;;;;;;29.83;15.57;;;10.20;99.90;;;;;;5078241;28;20032;-73
2023/04/17 02:31:30;;;;;;;39.83;17.10;;;10.20;99.90;;;;;;5077695;28;20054;-73
2023/04/17 02:33:56;;;;;;;29.35;15.95;;;10.20;99.90;;;;;;5078393;28;20107;-73
2023/04/17 02:36:22;;;;;;;31.52;16.42;;;10.20;99.90;;;;;;5077848;28;20085;-73
2023/04/17 02:38:47;;;;;;;33.92;17.05;;;10.20;99.90;;;;;;5078026;28;20013;-73
2023/04/17 02:41:13;;;;;;;34.83;17.73;;;10.10;99.90;;;;;;5077347;28;20016;-73
2023/04/17 02:43:38;;;;;;;35.20;17.15;;;10.10;99.90;;;;;;5077142;28;20088;-73
2023/04/17 02:46:04;;;;;;;37.13;17.70;;;10.10;99.90;;;;;;5077912;28;20035;-73
2023/04/17 02:48:29;;;;;;;36.28;16.85;;;10.10;99.90;;;;;;5077053;28;20020;-72
2023/04/17 02:50:55;;;;;;;36.90;17.08;;;10.10;99.90;;;;;;5077303;28;20123;-73
2023/04/17 02:53:20;;;;;;;33.65;15.98;;;10.10;99.90;;;;;;5076978;28;20025;-72
2023/04/17 02:55:46;;;;;;;35.67;16.92;;;10.10;99.90;;;;;;5077823;28;20029;-73
2023/04/17 02:58:12;;;;;;;38.15;17.23;;;10.10;99.90;;;;;;5077612;28;20017;-73
2023/04/17 03:00:38;;;;;;;35.78;17.60;;;10.20;99.90;;;;;;5077667;28;20025;-73
2023/04/17 03:03:03;;;;;;;31.13;16.50;;;10.20;99.90;;;;;;5077578;28;20035;-73
2023/04/17 03:05:29;;;;;;;33.08;16.17;;;10.30;99.90;;;;;;5077078;28;20069;-72
2023/04/17 03:07:57;;;;;;;36.22;17.70;;;10.30;99.90;;;;;;5076564;28;20059;-73
2023/04/17 03:10:22;;;;;;;35.83;16.85;;;10.30;99.90;;;;;;5077713;28;20071;-73
2023/04/17 03:12:48;;;;;;;32.50;16.77;;;10.30;99.90;;;;;;5076954;28;20024;-73
2023/04/17 03:15:13;;;;;;;36.47;16.88;;;10.30;99.90;;;;;;5076198;28;20106;-73
2023/04/17 03:17:39;;;;;;;28.42;15.07;;;10.20;99.90;;;;;;5076257;28;20028;-73
2023/04/17 03:20:06;;;;;;;33.03;19.33;;;10.30;99.90;;;;;;5076775;28;20024;-73
2023/04/17 03:22:32;;;;;;;35.40;17.75;;;10.30;99.90;;;;;;5077237;28;20036;-73
2023/04/17 03:24:57;;;;;;;36.20;17.63;;;10.30;99.90;;;;;;5076741;28;20024;-73
2023/04/17 03:27:23;;;;;;;34.58;17.15;;;10.30;99.90;;;;;;5076209;28;20067;-73
2023/04/17 03:29:50;;;;;;;32.70;16.67;;;10.30;99.90;;;;;;5077257;28;20013;-73
2023/04/17 03:32:16;;;;;;;35.65;16.55;;;10.30;99.90;;;;;;5076311;28;20021;-73
2023/04/17 03:34:42;;;;;;;34.50;17.13;;;10.30;99.90;;;;;;5076676;28;20023;-72
2023/04/17 03:37:07;;;;;;;37.50;16.83;;;10.30;99.90;;;;;;5076116;28;20036;-73
2023/04/17 03:39:33;;;;;;;29.05;15.32;;;10.30;99.90;;;;;;5076552;28;20058;-73
2023/04/17 03:41:58;;;;;;;30.33;16.80;;;10.30;99.90;;;;;;5076291;28;20031;-73
2023/04/17 03:44:24;;;;;;;34.05;17.20;;;10.30;99.90;;;;;;5076161;28;20052;-73
2023/04/17 03:46:50;;;;;;;33.58;17.52;;;10.30;99.90;;;;;;5077366;28;20029;-73
2023/04/17 03:49:15;;;;;;;28.90;16.23;;;10.30;99.90;;;;;;5076687;28;20024;-73
2023/04/17 03:51:41;;;;;;;36.28;17.02;;;10.30;99.90;;;;;;5076459;28;20025;-73
2023/04/17 03:54:07;;;;;;;42.20;17.38;;;10.30;99.90;;;;;;5076437;28;20104;-73
2023/04/17 03:56:33;;;;;;;36.17;17.42;;;10.30;99.90;;;;;;5076219;28;20048;-73
2023/04/17 03:58:58;;;;;;;34.67;17.90;;;10.30;99.90;;;;;;5076812;28;20031;-73
2023/04/17 04:01:27;;;;;;;33.63;17.42;;;10.30;99.90;;;;;;5076355;28;20024;-73
2023/04/17 04:03:53;;;;;;;37.75;18.75;;;10.40;99.90;;;;;;5075921;28;20066;-73
2023/04/17 04:06:19;;;;;;;37.28;18.58;;;10.30;99.90;;;;;;5076827;28;20025;-73
2023/04/17 04:08:45;;;;;;;37.20;18.33;;;10.30;99.90;;;;;;5076197;28;20174;-73
2023/04/17 04:11:10;;;;;;;33.63;16.60;;;10.30;99.90;;;;;;5077005;28;20048;-73
2023/04/17 04:13:36;;;;;;;35.58;17.48;;;10.30;99.90;;;;;;5075859;28;20040;-73
2023/04/17 04:16:01;;;;;;;33.47;16.58;;;10.30;99.90;;;;;;5076614;28;20017;-73
2023/04/17 04:18:27;;;;;;;34.75;17.23;;;10.20;99.90;;;;;;5075969;28;20028;-73
2023/04/17 04:20:53;;;;;;;32.05;16.80;;;10.30;99.90;;;;;;5076222;28;20024;-73
2023/04/17 04:23:20;;;;;;;35.03;16.73;;;10.30;99.90;;;;;;5076867;28;20024;-73
2023/04/17 04:25:48;;;;;;;37.80;18.25;;;10.30;99.90;;;;;;5076250;28;20044;-73
2023/04/17 04:28:14;;;;;;;27.90;15.60;;;10.30;99.90;;;;;;5077678;28;20063;-73
2023/04/17 04:30:39;;;;;;;35.42;16.70;;;10.30;99.90;;;;;;5079625;28;20060;-73
2023/04/17 04:33:07;;;;;;;31.55;16.40;;;10.30;99.90;;;;;;5079873;28;20089;-73
2023/04/17 04:35:33;;;;;;;37.08;17.58;;;10.30;99.90;;;;;;5079840;28;20021;-73
2023/04/17 04:38:01;;;;;;;34.47;17.05;;;10.30;99.90;;;;;;5101086;22;20044;-68
2023/04/17 04:40:36;;;;;;;34.30;18.77;;;10.30;99.90;;;;;;5079739;28;20024;-69
2023/04/17 04:43:03;;;;;;;33.33;16.65;;;10.20;99.90;;;;;;5079788;28;20024;-69
2023/04/17 04:45:28;;;;;;;37.63;16.92;;;10.20;99.90;;;;;;5080584;28;20017;-69
2023/04/17 04:47:54;;;;;;;33.90;16.63;;;10.20;99.90;;;;;;5079262;28;20017;-68
2023/04/17 04:50:20;;;;;;;37.53;17.38;;;10.20;99.90;;;;;;5080766;28;20024;-68
2023/04/17 04:52:45;;;;;;;33.38;17.02;;;10.20;99.90;;;;;;5079487;28;20021;-68
2023/04/17 04:55:11;;;;;;;31.90;16.55;;;10.20;99.90;;;;;;5079434;28;20012;-69
2023/04/17 04:57:36;;;;;;;32.22;17.38;;;10.20;99.90;;;;;;5079240;28;20115;-69
2023/04/17 05:00:05;;;;;;;30.95;16.90;;;10.30;99.90;;;;;;5079133;28;20099;-68
2023/04/17 05:02:30;;;;;;;33.25;15.35;;;10.20;99.90;;;;;;5080055;28;20024;-68
2023/04/17 05:04:56;;;;;;;35.38;16.60;;;10.20;99.90;;;;;;5078955;28;20039;-68
2023/04/17 05:07:21;;;;;;;35.90;17.30;;;10.20;99.90;;;;;;5078898;28;20029;-68
2023/04/17 05:09:47;;;;;;;32.28;16.52;;;10.20;99.90;;;;;;5079145;28;20056;-68
2023/04/17 05:12:12;;;;;;;37.63;16.67;;;10.20;99.90;;;;;;5079161;28;20067;-68
2023/04/17 05:14:38;;;;;;;31.20;17.08;;;10.20;99.90;;;;;;5079458;28;20021;-69
2023/04/17 05:17:03;;;;;;;29.85;14.38;;;10.20;99.90;;;;;;5079519;28;20046;-69
2023/04/17 05:19:29;;;;;;;30.55;15.50;;;10.20;99.90;;;;;;5078705;28;20020;-68
2023/04/17 05:21:55;;;;;;;33.65;17.23;;;10.30;99.90;;;;;;5079706;28;20032;-69
2023/04/17 05:24:20;;;;;;;30.85;14.98;;;10.30;99.90;;;;;;5079910;28;20035;-68
2023/04/17 05:26:46;;;;;;;31.65;15.60;;;10.30;99.90;;;;;;5078482;28;20024;-68
2023/04/17 05:29:11;;;;;;;37.30;16.10;;;10.40;99.90;;;;;;5079581;28;20020;-69
2023/04/17 05:31:37;;;;;;;30.67;14.48;;;10.40;99.90;;;;;;5079412;28;20024;-69
2023/04/17 05:34:02;;;;;;;30.02;15.15;;;10.40;99.90;;;;;;5078639;28;20035;-69
2023/04/17 05:36:30;;;;;;;29.88;15.88;;;10.40;99.90;;;;;;5079777;28;20028;-69
2023/04/17 05:38:56;;;;;;;39.42;15.93;;;10.40;99.90;;;;;;5079150;28;20017;-69
2023/04/17 05:41:21;;;;;;;33.22;15.52;;;10.40;99.90;;;;;;5079575;28;20074;-68
2023/04/17 05:43:47;;;;;;;32.78;15.35;;;10.50;99.90;;;;;;5079474;28;20028;-68
2023/04/17 05:46:12;;;;;;;29.42;15.77;;;10.40;99.90;;;;;;5078682;28;20017;-68
2023/04/17 05:48:38;;;;;;;30.85;15.65;;;10.40;99.90;;;;;;5078453;28;20056;-68
2023/04/17 05:51:04;;;;;;;30.92;15.55;;;10.40;99.90;;;;;;5078548;28;20017;-68
2023/04/17 05:53:30;;;;;;;31.77;15.27;;;10.50;99.90;;;;;;5078496;28;20048;-68
2023/04/17 05:55:56;;;;;;;32.70;15.60;;;10.50;99.90;;;;;;5078094;28;20024;-68
2023/04/17 05:58:21;;;;;;;27.05;14.95;;;10.50;99.90;;;;;;5078099;28;20025;-68
2023/04/17 06:00:47;;;;;;;32.25;15.85;;;10.50;99.90;;;;;;5077882;28;20036;-68
2023/04/17 06:03:13;;;;;;;30.45;15.77;;;10.50;99.90;;;;;;5077932;28;20021;-68
2023/04/17 06:05:39;;;;;;;28.63;15.95;;;10.50;99.90;;;;;;5076631;28;20023;-68
2023/04/17 06:08:05;;;;;;;29.83;15.20;;;10.50;99.90;;;;;;5077954;28;20111;-68
2023/04/17 06:10:32;;;;;;;30.33;14.88;;;10.50;99.90;;;;;;5078564;28;20017;-68
2023/04/17 06:12:59;;;;;;;31.98;16.02;;;10.50;99.90;;;;;;5077898;28;20012;-68
2023/04/17 06:15:25;;;;;;;30.30;14.65;;;10.50;99.90;;;;;;5078054;28;20028;-68
2023/04/17 06:17:50;;;;;;;31.10;15.23;;;10.50;99.90;;;;;;5077590;28;20028;-68
2023/04/17 06:20:16;;;;;;;33.55;17.50;;;10.50;99.90;;;;;;5078096;28;20031;-71
2023/04/17 06:22:43;;;;;;;33.13;15.68;;;10.40;99.90;;;;;;5078133;28;20020;-71
2023/04/17 06:25:09;;;;;;;33.60;15.70;;;10.50;99.90;;;;;;5077452;28;20021;-71
2023/04/17 06:27:35;;;;;;;30.52;14.52;;;10.50;99.90;;;;;;5077307;28;20032;-71
2023/04/17 06:30:00;;;;;;;33.10;15.23;;;10.60;99.90;;;;;;5077996;28;20079;-71
2023/04/17 06:32:26;;;;;;;31.60;15.40;;;10.60;99.90;;;;;;5077275;28;20036;-71
2023/04/17 06:34:51;;;;;;;31.45;15.63;;;10.50;99.90;;;;;;5077365;28;20016;-71
2023/04/17 06:37:17;;;;;;;32.80;16.45;;;10.50;99.90;;;;;;5077519;28;20170;-72
2023/04/17 06:39:42;;;;;;;30.08;14.75;;;10.60;99.90;;;;;;5077568;28;20067;-72
2023/04/17 06:42:08;;;;;;;31.80;15.55;;;10.60;99.90;;;;;;5077362;28;20026;-72
2023/04/17 06:44:33;;;;;;;31.52;15.68;;;10.50;99.90;;;;;;5077205;28;20047;-72
2023/04/17 06:47:02;;;;;;;32.30;15.80;;;10.60;99.90;;;;;;5077264;28;20028;-72
2023/04/17 06:49:31;;;;;;;31.45;14.88;;;10.60;99.90;;;;;;5077975;28;20076;-72
2023/04/17 06:51:57;;;;;;;34.47;16.70;;;10.60;99.90;;;;;;5076301;28;20090;-72
2023/04/17 06:54:23;;;;;;;31.15;15.65;;;10.70;99.90;;;;;;5076992;28;20025;-72
2023/04/17 06:56:49;;;;;;;29.00;16.40;;;10.70;99.90;;;;;;5077752;28;20078;-71
2023/04/17 06:59:14;;;;;;;30.73;15.68;;;10.80;99.90;;;;;;5076909;28;20028;-72
2023/04/17 07:01:41;;;;;;;30.83;15.93;;;10.80;99.90;;;;;;5077072;28;20123;-71
2023/04/17 07:04:07;;;;;;;34.28;16.23;;;10.80;99.90;;;;;;5076933;28;20072;-72
2023/04/17 07:06:34;;;;;;;35.13;16.38;;;10.90;99.90;;;;;;5077337;28;20025;-71
2023/04/17 07:09:00;;;;;;;30.00;15.20;;;10.90;99.90;;;;;;5078050;28;20020;-72
2023/04/17 07:11:26;;;;;;;34.80;16.10;;;10.90;99.90;;;;;;5076686;28;20020;-71
2023/04/17 07:13:51;;;;;;;31.30;15.95;;;10.90;99.90;;;;;;5077496;28;20024;-71
2023/04/17 07:16:17;;;;;;;32.90;16.58;;;10.80;99.90;;;;;;5076982;28;20032;-71
2023/04/17 07:18:42;;;;;;;33.53;16.05;;;10.90;99.90;;;;;;5076312;28;20031;-72
2023/04/17 07:21:08;;;;;;;30.08;15.77;;;11.00;99.90;;;;;;5077384;28;20052;-71
2023/04/17 07:23:33;;;;;;;30.33;15.50;;;11.00;99.90;;;;;;5076571;28;20098;-71
2023/04/17 07:25:59;;;;;;;35.08;15.50;;;11.00;99.90;;;;;;5076384;28;20025;-71
2023/04/17 07:28:24;;;;;;;29.20;16.30;;;11.00;99.90;;;;;;5076163;28;20050;-72
2023/04/17 07:30:51;;;;;;;25.60;14.25;;;11.00;99.90;;;;;;5077223;28;20020;-72
2023/04/17 07:33:17;;;;;;;28.20;12.98;;;11.10;99.90;;;;;;5076417;28;20028;-72
2023/04/17 07:35:42;;;;;;;33.03;16.10;;;11.10;99.90;;;;;;5076259;28;20085;-72
2023/04/17 07:38:08;;;;;;;35.10;15.75;;;11.10;99.90;;;;;;5077195;28;20036;-70
2023/04/17 07:40:35;;;;;;;31.27;14.57;;;11.20;99.90;;;;;;5076552;28;20021;-70
2023/04/17 07:43:00;;;;;;;32.40;14.85;;;11.20;99.90;;;;;;5076210;28;20024;-70
2023/04/17 07:45:27;;;;;;;26.83;13.93;;;11.30;99.90;;;;;;5076547;28;20171;-71
2023/04/17 07:47:53;;;;;;;23.30;13.07;;;11.20;99.90;;;;;;5076081;28;20115;-71
2023/04/17 07:50:18;;;;;;;29.05;14.63;;;11.20;99.90;;;;;;5076942;28;20099;-70
2023/04/17 07:52:45;;;;;;;26.75;12.95;;;11.20;99.90;;;;;;5076256;28;20021;-70
2023/04/17 07:55:10;;;;;;;29.33;14.13;;;11.30;99.90;;;;;;5077178;28;20081;-70
2023/04/17 07:57:36;;;;;;;29.42;14.68;;;11.20;99.90;;;;;;5076368;28;20116;-70
2023/04/17 08:00:03;;;;;;;24.77;13.38;;;11.10;99.90;;;;;;5076156;28;20078;-70
2023/04/17 08:02:29;;;;;;;26.80;13.52;;;11.10;99.90;;;;;;5077765;28;20035;-70
2023/04/17 08:04:55;;;;;;;26.00;13.98;;;11.20;99.90;;;;;;5080643;28;20020;-70
2023/04/17 08:07:21;;;;;;;26.20;13.93;;;11.10;99.90;;;;;;5080941;28;20021;-70
2023/04/17 08:09:46;;;;;;;29.95;13.85;;;11.10;99.90;;;;;;5080155;28;20029;-70
2023/04/17 08:12:12;;;;;;;23.85;12.90;;;11.30;99.90;;;;;;5080058;28;20017;-71
2023/04/17 08:14:39;;;;;;;22.73;12.05;;;11.40;99.90;;;;;;5080150;28;20024;-70
2023/04/17 08:17:06;;;;;;;24.80;12.52;;;11.50;99.90;;;;;;5080918;28;20027;-70
2023/04/17 08:19:31;;;;;;;23.88;11.68;;;11.60;99.90;;;;;;5080941;28;20025;-70
2023/04/17 08:22:02;;;;;;;18.05;10.85;;;11.70;99.90;;;;;;5079942;28;20025;-70
2023/04/17 08:24:29;;;;;;;22.45;10.57;;;11.70;99.90;;;;;;5079966;28;20024;-70
2023/04/17 08:26:55;;;;;;;20.65;10.68;;;11.60;99.90;;;;;;5079930;28;20040;-70
2023/04/17 08:29:20;;;;;;;21.23;11.05;;;11.70;99.90;;;;;;5080079;28;20016;-70
2023/04/17 08:31:46;;;;;;;19.50;9.90;;;11.90;99.90;;;;;;5079808;28;20032;-71
2023/04/17 08:34:11;;;;;;;20.20;9.82;;;11.90;99.90;;;;;;5079611;28;20032;-70
2023/04/17 08:36:37;;;;;;;20.75;9.55;;;12.00;99.90;;;;;;5079579;28;20024;-71
2023/04/17 08:39:03;;;;;;;17.65;10.32;;;12.00;99.90;;;;;;5079593;28;20038;-71
2023/04/17 08:41:36;;;;;;;17.90;8.82;;;12.00;99.90;;;;;;5079513;28;20020;-71
2023/04/17 08:44:02;;;;;;;18.58;9.45;;;12.00;99.90;;;;;;5079556;28;20052;-72
2023/04/17 08:46:29;;;;;;;17.25;9.82;;;11.90;99.90;;;;;;5080591;28;20031;-71
2023/04/17 08:48:55;;;;;;;19.70;9.75;;;11.90;99.90;;;;;;5080837;28;20071;-71
2023/04/17 08:51:25;;;;;;;17.65;10.10;;;12.00;99.90;;;;;;5080154;28;20021;-71
2023/04/17 08:53:50;;;;;;;17.15;9.18;;;12.00;99.90;;;;;;5080184;28;20065;-72
2023/04/17 08:56:16;;;;;;;15.93;8.50;;;12.00;99.90;;;;;;5079507;28;20099;-72
2023/04/17 08:58:41;;;;;;;14.07;8.93;;;12.10;99.90;;;;;;5079968;28;20020;-72
2023/04/17 09:01:11;;;;;;;15.27;8.88;;;12.20;99.90;;;;;;5079947;28;20025;-72
2023/04/17 09:03:45;;;;;;;17.48;8.73;;;12.30;99.90;;;;;;5079893;28;20055;-71
2023/04/17 09:06:11;;;;;;;13.40;7.13;;;12.40;99.90;;;;;;5080002;28;20025;-72
2023/04/17 09:08:38;;;;;;;11.73;6.40;;;12.60;99.90;;;;;;5079783;28;20032;-72
2023/04/17 09:11:04;;;;;;;13.40;6.82;;;12.90;99.90;;;;;;5078761;28;20025;-72
2023/04/17 09:13:38;;;;;;;15.10;6.93;;;12.90;99.90;;;;;;5078900;28;20058;-71
2023/04/17 09:16:09;;;;;;;14.05;6.95;;;13.00;99.90;;;;;;5079753;28;20107;-71
2023/04/17 09:18:35;;;;;;;12.85;6.97;;;13.00;99.90;;;;;;5079669;28;20044;-72
2023/04/17 09:21:03;;;;;;;14.38;7.32;;;13.10;99.90;;;;;;5079310;28;20028;-71
2023/04/17 09:23:44;;;;;;;15.65;6.55;;;13.20;99.90;;;;;;5078983;28;20032;-72
2023/04/17 09:26:15;;;;;;;13.38;6.07;;;13.30;99.90;;;;;;5079586;28;20052;-72
2023/04/17 09:28:42;;;;;;;15.87;6.57;;;13.30;99.90;;;;;;5078936;28;20029;-71
2023/04/17 09:31:17;;;;;;;13.52;6.28;;;13.40;99.90;;;;;;5079453;28;20255;-72
2023/04/17 09:34:03;;;;;;;12.90;6.13;;;13.50;99.90;;;;;;5079427;28;20070;-72
2023/04/17 09:36:31;;;;;;;12.27;6.60;;;13.60;99.90;;;;;;5079186;28;20032;-71
2023/04/17 09:39:03;;;;;;;10.45;6.43;;;13.70;99.90;;;;;;5079453;28;20058;-72
2023/04/17 09:41:34;;;;;;;;;;;13.80;99.90;;;;;;5079600;28;20067;-71
2023/04/17 09:44:00;;;;;;;8.23;5.27;;;13.90;99.90;;;;;;5079399;28;19940;-72
2023/04/17 09:46:34;;;;;;;10.02;5.28;;;13.90;99.90;;;;;;5079152;28;20071;-71
2023/04/17 09:49:09;;;;;;;10.10;5.72;;;13.90;99.90;;;;;;5079150;28;20024;-71
2023/04/17 09:51:37;;;;;;;8.00;5.45;;;13.80;99.90;;;;;;5078221;28;20058;-71
2023/04/17 09:54:05;;;;;;;8.93;4.75;;;13.80;99.90;;;;;;5078445;28;20020;-71
2023/04/17 09:56:32;;;;;;;12.05;5.63;;;13.80;99.90;;;;;;5079331;28;20031;-72
2023/04/17 09:59:04;;;;;;;9.63;6.10;;;13.90;99.90;;;;;;5078104;28;20047;-72
2023/04/17 10:01:34;;;;;;;9.25;5.20;;;13.90;99.90;;;;;;5078399;28;20028;-72
2023/04/17 10:04:01;;;;;;;8.77;4.90;;;13.90;99.90;;;;;;5078853;28;20036;-72
2023/04/17 10:06:28;;;;;;;7.63;4.82;;;13.90;99.90;;;;;;5077799;28;20034;-72
2023/04/17 10:08:54;;;;;;;8.35;4.82;;;14.00;99.90;;;;;;5077876;28;20025;-72
2023/04/17 10:11:23;;;;;;;6.93;5.20;;;14.00;99.90;;;;;;5078073;28;20016;-72
2023/04/17 10:13:56;;;;;;;8.57;5.35;;;14.00;99.90;;;;;;5077949;28;20020;-71
2023/04/17 10:16:34;;;;;;;7.82;5.18;;;13.90;99.90;;;;;;5077830;28;20112;-72
2023/04/17 10:19:29;;;;;;;7.03;4.20;;;13.80;99.90;;;;;;5077747;28;20025;-72
2023/04/17 10:22:19;;;;;;;6.38;4.03;;;13.90;99.90;;;;;;5078840;28;20016;-72
2023/04/17 10:24:47;;;;;;;6.93;3.97;;;13.90;99.90;;;;;;5078770;28;20028;-71
2023/04/17 10:27:25;;;;;;;11.23;5.00;;;13.90;99.90;;;;;;5077410;28;20123;-71
2023/04/17 10:29:58;;;;;;;8.50;5.25;;;13.90;99.90;;;;;;5077717;28;20107;-71
2023/04/17 10:32:27;;;;;;;12.07;4.85;;;13.90;99.90;;;;;;5077445;28;20024;-72
2023/04/17 10:34:56;;;;;;;6.75;4.53;;;14.00;99.90;;;;;;5078445;28;20021;-71
2023/04/17 10:37:51;;;;;;;7.30;4.45;;;14.00;99.90;;;;;;5077974;28;20089;-73
2023/04/17 10:40:25;;;;;;;7.53;4.30;;;14.00;99.90;;;;;;5077201;28;20028;-73
2023/04/17 10:43:22;;;;;;;7.15;4.18;;;13.90;99.90;;;;;;5077249;28;20029;-73
2023/04/17 10:46:07;;;;;;;7.13;4.10;;;13.80;99.90;;;;;;5077528;28;20033;-73
2023/04/17 10:48:35;;;;;;;8.35;4.20;;;13.80;99.90;;;;;;5076953;28;20021;-73
2023/04/17 10:51:19;;;;;;;9.85;4.43;;;13.80;99.90;;;;;;5075593;28;20055;-73
2023/04/17 10:53:45;;;;;;;6.50;4.07;;;13.70;99.90;;;;;;5063960;28;20074;-73
2023/04/17 10:56:23;;;;;;;6.70;3.97;;;13.70;99.90;;;;;;5057155;28;20021;-73
2023/04/17 10:59:09;;;;;;;6.10;4.65;;;13.60;99.90;;;;;;5056991;28;20040;-73
2023/04/17 11:01:56;;;;;;;10.48;3.92;;;13.60;99.90;;;;;;5056931;28;20025;-73
2023/04/17 11:04:29;;;;;;;6.22;4.05;;;13.70;99.90;;;;;;5057276;28;20021;-73
2023/04/17 11:06:55;;;;;;;8.45;4.10;;;13.80;99.90;;;;;;5056595;28;20047;-73
2023/04/17 11:09:22;;;;;;;7.10;3.92;;;13.90;99.90;;;;;;5057542;28;20017;-73
2023/04/17 11:11:48;;;;;;;10.50;3.80;;;13.80;99.90;;;;;;5056997;28;20111;-74
2023/04/17 11:14:18;;;;;;;6.75;3.97;;;13.90;99.90;;;;;;5056381;28;20056;-73
2023/04/17 11:16:46;;;;;;;7.88;4.60;;;13.90;99.90;;;;;;5058649;28;20048;-73
2023/04/17 11:19:18;;;;;;;8.43;4.10;;;13.80;99.90;;;;;;5075943;28;20020;-73
2023/04/17 11:21:51;;;;;;;7.82;3.55;;;13.70;99.90;;;;;;5077383;28;20074;-73
2023/04/17 11:24:28;;;;;;;8.98;4.82;;;13.80;99.90;;;;;;5077286;28;20031;-73
2023/04/17 11:26:55;;;;;;;9.00;4.72;;;13.90;99.90;;;;;;5077311;28;20020;-73
2023/04/17 11:29:23;;;;;;;4.65;3.70;;;14.20;99.90;;;;;;5076703;28;20025;-73
2023/04/17 11:31:51;;;;;;;6.47;4.55;;;14.50;99.90;;;;;;5077525;28;20020;-73
2023/04/17 11:34:17;;;;;;;10.82;3.50;;;14.80;99.90;;;;;;5071100;28;20024;-74
2023/04/17 11:36:51;;;;;;;6.72;3.85;;;14.90;99.90;;;;;;5056491;28;20021;-72
2023/04/17 11:39:18;;;;;;;5.82;3.55;;;15.10;99.90;;;;;;5057210;28;20116;-73
2023/04/17 11:41:45;;;;;;;8.07;3.65;;;15.10;99.90;;;;;;5056858;28;20048;-73
2023/04/17 11:44:16;;;;;;;5.93;3.95;;;15.00;99.90;;;;;;5056243;28;20025;-73
2023/04/17 11:46:47;;;;;;;4.70;3.40;;;15.00;99.90;;;;;;5056261;28;20051;-73
2023/04/17 11:49:13;;;;;;;15.30;4.00;;;14.80;99.90;;;;;;5056700;28;20025;-73
2023/04/17 11:51:45;;;;;;;7.28;4.40;;;14.60;99.90;;;;;;5055745;28;20104;-73
2023/04/17 11:54:28;;;;;;;4.40;3.15;;;14.40;99.90;;;;;;5056108;28;20107;-73
2023/04/17 11:57:20;;;;;;;6.78;4.07;;;14.30;99.90;;;;;;5056906;28;20029;-73
2023/04/17 11:59:46;;;;;;;8.30;4.30;;;14.40;99.90;;;;;;5064584;28;20016;-73
2023/04/17 12:02:11;;;;;;;4.68;3.58;;;14.50;99.90;;;;;;5076265;28;20093;-73
2023/04/17 12:04:38;;;;;;;5.28;2.92;;;14.60;99.90;;;;;;5076124;28;20044;-73
2023/04/17 12:07:05;;;;;;;4.78;3.10;;;15.10;99.90;;;;;;5076630;28;20115;-73
2023/04/17 12:09:32;;;;;;;4.13;2.85;;;15.30;99.90;;;;;;5076980;28;20025;-73
2023/04/17 12:12:00;;;;;;;8.48;2.80;;;15.60;99.90;;;;;;5075984;28;20056;-73
2023/04/17 12:14:29;;;;;;;8.52;2.78;;;15.70;99.90;;;;;;5077220;28;20100;-73
2023/04/17 12:16:54;;;;;;;5.80;3.38;;;15.50;99.90;;;;;;5076753;28;20020;-73
2023/04/17 12:19:20;;;;;;;7.35;2.95;;;15.40;99.90;;;;;;5076208;28;20027;-73
2023/04/17 12:21:51;;;;;;;5.43;2.58;;;15.10;99.90;;;;;;5077039;28;20044;-74
2023/04/17 12:24:18;;;;;;;4.05;2.50;;;14.70;99.90;;;;;;5075898;28;20113;-73
2023/04/17 12:26:51;;;;;;;5.35;2.53;;;14.50;99.90;;;;;;5075693;28;20028;-74
2023/04/17 12:29:19;;;;;;;5.38;2.58;;;14.40;99.90;;;;;;5076814;28;20103;-74
2023/04/17 12:31:48;;;;;;;8.15;2.65;;;14.40;99.90;;;;;;5076132;28;20025;-74
2023/04/17 12:34:13;;;;;;;4.07;2.80;;;14.90;99.90;;;;;;5075735;28;20028;-73